Nichimi Maru — JJ3251 — position and weather

sailwx.info

Track history (hours):
 
Tides and Currents Weather Stations Pressure Air Temp Water Temp Dewpoint Dewpoint Depression Visibility Wind Speed Wind Dir Waves Ship Positions

Nichimi Maru

Last reported at 2018-Mar-24 20:13 UTC. Time now 2018-Apr-22 08:21 UTC.
Position N 34°26' E 134°02'.
Warning: this ship's position is 28 days out of date.

Length 89 m; draft 3.7 m.

Type: Tanker. MMSI: 431000495.

Date/timePositionNaut miles runAvg speedWind from/ knotsBaromVisibWave heightAir tempDewpointWater temp
2018-Mar-24 20:13N 34°26' E 134°02'6 8.7
2018-Mar-24 19:30N 34°26' E 134°09'5 9.4
2018-Mar-24 18:57N 34°24' E 134°15'510.0
2018-Mar-24 18:29N 34°24' E 134°21'5 9.9
2018-Mar-24 18:00N 34°26' E 134°26'5 9.7
2018-Mar-24 17:30N 34°28' E 134°32'510.0
2018-Mar-24 17:00N 34°30' E 134°37'510.2
2018-Mar-24 16:30N 34°32' E 134°43'510.8
2018-Mar-24 16:00N 34°34' E 134°49'612.2
2018-Mar-24 15:30N 34°37' E 134°56'611.3
2018-Mar-24 15:00N 34°37' E 135°03'4 8.6
2018-Mar-24 14:30N 34°33' E 135°05'510.2
2018-Mar-24 14:00N 34°28' E 135°04'510.2
2018-Mar-24 13:30N 34°23' E 135°02'510.0
2018-Mar-24 13:00N 34°18' E 134°60'4 8.8
2018-Mar-24 12:30N 34°14' E 134°59'4 7.9
2018-Mar-24 12:00N 34°10' E 134°59'5 9.2
2018-Mar-24 11:30N 34°06' E 134°59'5 9.3
2018-Mar-24 11:00N 34°01' E 134°59'5 9.6
2018-Mar-24 10:30N 33°56' E 134°60'5 9.2
2018-Mar-24 10:00N 33°52' E 135°00'5 9.3
2018-Mar-24 09:30N 33°48' E 135°03'183 8.4
2018-Mar-23 11:49N 34°32' E 138°38'5 8.2
2018-Mar-23 11:13N 34°33' E 138°43'4 7.7
2018-Mar-23 10:45N 34°33' E 138°48'2 8.1
2018-Mar-23 10:29N 34°33' E 138°50'4 7.9
2018-Mar-23 09:59N 34°33' E 138°55'4 7.4
2018-Mar-23 09:30N 34°33' E 138°60'5 8.1
2018-Mar-23 08:50N 34°36' E 139°04'3 8.0
2018-Mar-23 08:30N 34°38' E 139°07'6 7.6
2018-Mar-23 07:39N 34°43' E 139°12'1 7.6
2018-Mar-23 07:30N 34°44' E 139°12'4 7.3
2018-Mar-23 06:58N 34°47' E 139°15'4 7.7
2018-Mar-23 06:30N 34°49' E 139°19'5 7.1
2018-Mar-23 05:50N 34°52' E 139°24'3 7.4
2018-Mar-23 05:29N 34°54' E 139°26'5 7.5
2018-Mar-23 04:51N 34°57' E 139°30'3 8.1
2018-Mar-23 04:28N 34°59' E 139°33'4 9.0
2018-Mar-23 04:00N 35°02' E 139°36'7 9.6
2018-Mar-23 03:18N 35°07' E 139°43'3 9.4
2018-Mar-23 03:00N 35°09' E 139°44'510.1
2018-Mar-23 02:30N 35°14' E 139°46'510.3
2018-Mar-23 02:00N 35°18' E 139°43'5 9.7
2018-Mar-23 01:30N 35°23' E 139°42'510.2
2018-Mar-23 01:00N 35°27' E 139°47'510.4
2018-Mar-23 00:30N 35°30' E 139°51'510.0
2018-Mar-22 23:59N 35°34' E 139°56'4 8.9
2018-Mar-22 23:30N 35°37' E 139°59'4 0.2
2018-Mar-22 02:24N 35°41' E 139°59'2 4.6
2018-Mar-22 01:59N 35°39' E 139°59'1 1.1
2018-Mar-22 01:30N 35°38' E 139°59'2 0.1
2018-Mar-20 05:36N 35°41' E 139°59'1 3.8
2018-Mar-20 05:26N 35°40' E 139°59'4 9.3
2018-Mar-20 05:00N 35°36' E 140°00'4 8.1
2018-Mar-20 04:31N 35°36' E 140°05'0 0.1
2018-Mar-20 04:00N 35°36' E 140°05'0 0.1
2018-Mar-20 03:30N 35°36' E 140°05'0 0.0
2018-Mar-20 03:00N 35°36' E 140°05'0 0.1
2018-Mar-20 02:30N 35°36' E 140°05'0 0.0
2018-Mar-20 02:00N 35°36' E 140°05'0 0.1
2018-Mar-20 01:30N 35°36' E 140°05'0 0.1
2018-Mar-20 01:00N 35°36' E 140°05'0 0.0
2018-Mar-20 00:30N 35°36' E 140°05'0 0.0
2018-Mar-20 00:00N 35°36' E 140°05'0 0.0
2018-Mar-19 23:30N 35°36' E 140°05'0 0.0
2018-Mar-19 23:00N 35°36' E 140°05'0 0.1
2018-Mar-19 22:30N 35°36' E 140°05'2 3.7
2018-Mar-19 22:00N 35°35' E 140°04'1 1.8
2018-Mar-19 21:30N 35°34' E 140°03'0 0.0
2018-Mar-19 21:00N 35°34' E 140°03'0 0.0
2018-Mar-19 20:30N 35°34' E 140°03'0 0.0
2018-Mar-19 19:57N 35°34' E 140°03'0 0.0
2018-Mar-19 19:30N 35°34' E 140°03'0 0.0
2018-Mar-19 18:57N 35°34' E 140°03'0 0.0
2018-Mar-19 18:24N 35°34' E 140°03'0 0.0
2018-Mar-19 18:00N 35°34' E 140°03'0 0.0
2018-Mar-19 17:30N 35°34' E 140°03'0 0.0
2018-Mar-19 17:00N 35°34' E 140°03'0 0.0
2018-Mar-19 16:30N 35°34' E 140°03'0 0.1
2018-Mar-19 16:00N 35°34' E 140°03'2 4.3
2018-Mar-19 15:30N 35°33' E 140°01'4 8.3
2018-Mar-19 14:59N 35°30' E 139°57'4 8.6
2018-Mar-19 14:30N 35°29' E 139°52'4 8.4
2018-Mar-19 14:00N 35°26' E 139°48'4 8.5
2018-Mar-19 13:30N 35°25' E 139°43'3 5.7
2018-Mar-19 13:01N 35°24' E 139°39'0 0.2
2018-Mar-19 12:30N 35°25' E 139°39'0 0.1
2018-Mar-19 12:00N 35°25' E 139°39'0 0.1
2018-Mar-19 11:30N 35°25' E 139°39'0 0.0
2018-Mar-19 11:00N 35°25' E 139°39'0 0.0
2018-Mar-19 10:30N 35°25' E 139°39'0 0.0
2018-Mar-19 10:00N 35°25' E 139°39'0 0.1
2018-Mar-19 09:30N 35°25' E 139°39'0 0.0
2018-Mar-19 09:00N 35°25' E 139°39'0 0.0
2018-Mar-19 08:30N 35°25' E 139°39'0 0.1
2018-Mar-19 07:57N 35°25' E 139°39'0 0.1
2018-Mar-19 07:30N 35°25' E 139°39'0 0.0
2018-Mar-19 06:54N 35°25' E 139°39'0 0.0
2018-Mar-19 06:30N 35°25' E 139°39'0 0.1
2018-Mar-19 06:00N 35°25' E 139°39'2 4.2
2018-Mar-19 05:30N 35°24' E 139°42'5 9.5
2018-Mar-19 05:00N 35°27' E 139°47'5 9.4
2018-Mar-19 04:31N 35°29' E 139°51'5 9.4
2018-Mar-19 04:00N 35°32' E 139°56'5 9.8
2018-Mar-19 03:30N 35°34' E 140°02'4 6.8
2018-Mar-19 02:59N 35°36' E 140°05'0 0.1
2018-Mar-19 02:29N 35°36' E 140°05'0 0.0
2018-Mar-19 01:59N 35°36' E 140°05'0 0.0
2018-Mar-19 01:29N 35°36' E 140°05'0 0.0
2018-Mar-19 00:59N 35°36' E 140°05'0 0.0
2018-Mar-19 00:29N 35°36' E 140°05'0 0.0
2018-Mar-18 23:59N 35°36' E 140°05'0 0.1
2018-Mar-18 23:29N 35°36' E 140°05'0 0.1
2018-Mar-18 22:59N 35°36' E 140°05'0 0.0
2018-Mar-18 22:30N 35°36' E 140°05'1 2.9
2018-Mar-18 22:00N 35°35' E 140°04'1 2.7
2018-Mar-18 21:29N 35°34' E 140°03'0 0.0
2018-Mar-18 20:59N 35°34' E 140°03'0 0.0
2018-Mar-18 20:27N 35°34' E 140°03'0 0.0
2018-Mar-18 19:56N 35°34' E 140°03'0 0.0
2018-Mar-18 19:29N 35°34' E 140°03'0 0.1
2018-Mar-18 18:59N 35°34' E 140°03'0 0.0
2018-Mar-18 18:29N 35°34' E 140°03'0 0.0
2018-Mar-18 17:56N 35°34' E 140°03'0 0.1
2018-Mar-18 17:29N 35°34' E 140°03'0 0.0
2018-Mar-18 16:59N 35°34' E 140°03'0 0.0
2018-Mar-18 16:29N 35°34' E 140°03'0 0.0
2018-Mar-18 15:56N 35°34' E 140°03'0 0.0
2018-Mar-18 15:29N 35°34' E 140°03'1 2.9
2018-Mar-18 15:01N 35°33' E 140°02'4 8.8
2018-Mar-18 14:30N 35°30' E 139°58'4 8.9
2018-Mar-18 14:00N 35°29' E 139°53'4 9.0
2018-Mar-18 13:30N 35°26' E 139°48'4 8.9
2018-Mar-18 13:00N 35°24' E 139°43'3 6.5
2018-Mar-18 12:31N 35°24' E 139°39'0 0.3
2018-Mar-18 11:59N 35°25' E 139°39'0 0.0
2018-Mar-18 11:29N 35°25' E 139°39'0 0.0
2018-Mar-18 10:59N 35°25' E 139°39'0 0.0
2018-Mar-18 10:29N 35°25' E 139°39'0 0.1
2018-Mar-18 09:59N 35°25' E 139°39'0 0.1
2018-Mar-18 09:29N 35°25' E 139°39'0 0.0
2018-Mar-18 08:56N 35°25' E 139°39'0 0.1
2018-Mar-18 08:29N 35°25' E 139°39'0 0.0
2018-Mar-18 07:59N 35°25' E 139°39'0 0.0
2018-Mar-18 07:29N 35°25' E 139°39'0 0.1
2018-Mar-18 06:59N 35°25' E 139°39'0 0.0
2018-Mar-18 06:26N 35°25' E 139°39'0 0.1
2018-Mar-18 05:59N 35°25' E 139°39'1 2.4
2018-Mar-18 05:30N 35°24' E 139°40'4 8.7
2018-Mar-18 05:00N 35°26' E 139°45'5 9.8
2018-Mar-18 04:31N 35°29' E 139°50'510.2
2018-Mar-18 04:00N 35°32' E 139°55'510.7
2018-Mar-18 03:30N 35°34' E 140°01'4 8.4
2018-Mar-18 03:00N 35°36' E 140°05'0 0.0
2018-Mar-18 02:29N 35°36' E 140°05'0 0.0
2018-Mar-18 01:59N 35°36' E 140°05'0 0.0
2018-Mar-18 01:29N 35°36' E 140°05'0 0.0
2018-Mar-18 00:59N 35°36' E 140°05'0 0.0
2018-Mar-18 00:29N 35°36' E 140°05'0 0.0
2018-Mar-17 23:59N 35°36' E 140°05'0 0.0
2018-Mar-17 23:29N 35°36' E 140°05'0 0.0
2018-Mar-17 22:59N 35°36' E 140°05'0 0.0
2018-Mar-17 22:30N 35°36' E 140°05'1 2.7
2018-Mar-17 22:00N 35°35' E 140°04'1 2.9
2018-Mar-17 21:29N 35°34' E 140°03'0 0.1
2018-Mar-17 21:00N 35°34' E 140°03'0 0.0
2018-Mar-17 20:27N 35°34' E 140°03'0 0.0
2018-Mar-17 20:00N 35°34' E 140°03'0 0.0
2018-Mar-17 19:29N 35°34' E 140°03'0 0.0
2018-Mar-17 18:56N 35°34' E 140°03'0 0.0
2018-Mar-17 18:30N 35°34' E 140°03'0 0.0
2018-Mar-17 18:00N 35°34' E 140°03'0 0.0
2018-Mar-17 17:27N 35°34' E 140°03'0 0.0
2018-Mar-17 17:00N 35°34' E 140°03'0 0.0
2018-Mar-17 16:27N 35°34' E 140°03'0 0.0
2018-Mar-17 15:59N 35°34' E 140°03'0 0.0
2018-Mar-17 15:30N 35°34' E 140°03'0 0.0
2018-Mar-17 15:00N 35°34' E 140°03'0 0.0
2018-Mar-17 14:29N 35°34' E 140°03'0 0.0
2018-Mar-17 13:59N 35°34' E 140°03'0 0.0
2018-Mar-17 13:27N 35°34' E 140°03'0 0.0
2018-Mar-17 13:00N 35°34' E 140°03'0 0.1
2018-Mar-17 12:30N 35°34' E 140°03'4 7.8
2018-Mar-17 12:00N 35°32' E 139°59'4 8.6
2018-Mar-17 11:30N 35°30' E 139°55'4 8.2
2018-Mar-17 11:00N 35°28' E 139°50'4 8.5
2018-Mar-17 10:31N 35°26' E 139°45'4 8.1
2018-Mar-17 10:01N 35°24' E 139°41'2 3.7
2018-Mar-17 09:31N 35°25' E 139°39'0 0.1
2018-Mar-17 09:00N 35°25' E 139°39'0 0.1
2018-Mar-17 08:30N 35°25' E 139°39'0 0.0
2018-Mar-17 08:00N 35°25' E 139°39'0 0.0
2018-Mar-17 07:30N 35°25' E 139°39'0 0.0
2018-Mar-17 07:00N 35°25' E 139°39'0 0.1
2018-Mar-17 06:30N 35°25' E 139°39'0 0.0
2018-Mar-17 05:57N 35°25' E 139°39'0 0.1
2018-Mar-17 05:30N 35°25' E 139°39'0 0.0
2018-Mar-17 05:00N 35°25' E 139°39'0 0.1
2018-Mar-17 04:30N 35°25' E 139°39'0 0.0
2018-Mar-17 04:00N 35°25' E 139°39'0 0.0
2018-Mar-17 03:27N 35°25' E 139°39'0 0.0
2018-Mar-17 03:00N 35°25' E 139°39'1 1.1
2018-Mar-17 02:30N 35°24' E 139°39'3 5.8
2018-Mar-17 02:01N 35°24' E 139°43'510.5
2018-Mar-17 01:31N 35°28' E 139°48'510.7
2018-Mar-17 01:00N 35°32' E 139°52'510.4
2018-Mar-17 00:30N 35°36' E 139°56'5 0.3
2018-Mar-16 04:14N 35°41' E 139°59'2 7.1
2018-Mar-16 04:00N 35°39' E 139°59'5 9.8
2018-Mar-16 03:30N 35°34' E 139°57'510.4
2018-Mar-16 03:00N 35°30' E 139°55'1 2.2
2018-Mar-16 02:29N 35°29' E 139°55'0 0.0
2018-Mar-16 01:56N 35°29' E 139°55'0 0.0
2018-Mar-16 01:23N 35°29' E 139°55'0 0.0
2018-Mar-16 00:59N 35°29' E 139°55'0 0.0
2018-Mar-16 00:29N 35°29' E 139°55'0 0.0
2018-Mar-15 23:59N 35°28' E 139°55'0 0.0
2018-Mar-15 23:29N 35°29' E 139°55'0 0.0
2018-Mar-15 22:56N 35°28' E 139°55'0 0.1
2018-Mar-15 22:20N 35°28' E 139°55'0 0.1
2018-Mar-15 21:59N 35°29' E 139°55'0 0.0
2018-Mar-15 21:26N 35°29' E 139°55'0 0.0
2018-Mar-15 20:59N 35°29' E 139°55'0 0.0
2018-Mar-15 20:29N 35°29' E 139°55'0 0.0
2018-Mar-15 19:59N 35°29' E 139°55'0 0.0
2018-Mar-15 19:29N 35°29' E 139°55'0 0.0
2018-Mar-15 18:59N 35°29' E 139°55'0 0.0
2018-Mar-15 18:29N 35°29' E 139°55'0 0.0
2018-Mar-15 17:59N 35°29' E 139°55'0 0.0
2018-Mar-15 17:26N 35°29' E 139°55'0 0.0
2018-Mar-15 16:59N 35°29' E 139°55'0 0.0
2018-Mar-15 16:26N 35°29' E 139°55'0 0.0
2018-Mar-15 15:59N 35°29' E 139°55'0 0.0
2018-Mar-15 15:29N 35°29' E 139°55'0 0.0
2018-Mar-15 14:59N 35°29' E 139°55'0 0.0
2018-Mar-15 14:29N 35°29' E 139°55'0 0.0
2018-Mar-15 13:56N 35°29' E 139°55'0 0.0
2018-Mar-15 13:29N 35°29' E 139°55'0 0.0
2018-Mar-15 12:59N 35°29' E 139°55'0 0.0
2018-Mar-15 12:26N 35°29' E 139°55'0 0.0
2018-Mar-15 11:59N 35°29' E 139°55'0 0.0
2018-Mar-15 11:20N 35°29' E 139°55'0 0.0
2018-Mar-15 10:56N 35°29' E 139°55'0 0.0
2018-Mar-15 10:29N 35°29' E 139°55'0 0.0
2018-Mar-15 09:59N 35°29' E 139°55'0 0.0
2018-Mar-15 09:29N 35°29' E 139°55'0 0.0
2018-Mar-15 08:59N 35°29' E 139°55'0 0.0
2018-Mar-15 08:29N 35°29' E 139°55'0 0.0
2018-Mar-15 07:59N 35°29' E 139°55'1 1.9
2018-Mar-15 07:31N 35°29' E 139°54'5 9.3
2018-Mar-15 07:00N 35°27' E 139°48'5 9.7
2018-Mar-15 06:30N 35°25' E 139°43'2 3.4
2018-Mar-15 06:00N 35°24' E 139°41'4 8.6
2018-Mar-15 05:30N 35°27' E 139°45'4 8.8
2018-Mar-15 05:00N 35°29' E 139°49'4 8.6
2018-Mar-15 04:30N 35°32' E 139°54'4 8.6
2018-Mar-15 04:00N 35°33' E 139°59'4 9.0
2018-Mar-15 03:30N 35°35' E 140°04'1 1.9
2018-Mar-15 02:58N 35°36' E 140°05'0 0.0
2018-Mar-15 02:25N 35°36' E 140°05'0 0.0
2018-Mar-15 01:58N 35°36' E 140°05'0 0.0
2018-Mar-15 01:28N 35°36' E 140°05'0 0.0
2018-Mar-15 00:58N 35°36' E 140°05'0 0.0
2018-Mar-15 00:28N 35°36' E 140°05'0 0.0
2018-Mar-14 23:58N 35°36' E 140°05'0 0.0
2018-Mar-14 23:28N 35°36' E 140°05'0 0.0
2018-Mar-14 22:58N 35°36' E 140°05'0 0.0
2018-Mar-14 22:30N 35°36' E 140°05'2 3.6
2018-Mar-14 22:00N 35°35' E 140°03'1 1.9
2018-Mar-14 21:28N 35°34' E 140°03'0 0.0
2018-Mar-14 20:58N 35°34' E 140°03'0 0.0
2018-Mar-14 20:28N 35°34' E 140°03'  
Track history (hours):
 
Tides and Currents Weather Stations Pressure Air Temp Water Temp Dewpoint Dewpoint Depression Visibility Wind Speed Wind Dir Waves Ship Positions

Nichimi Maru

Last reported at 2018-Mar-24 20:13 UTC. Time now 2018-Apr-22 08:21 UTC.
Position N 34°26' E 134°02'.
Warning: this ship's position is 28 days out of date.

Length 89 m; draft 3.7 m.

Type: Tanker. MMSI: 431000495.

Date/timePositionNaut miles runAvg speedWind from/ knotsBaromVisibWave heightAir tempDewpointWater temp
2018-Mar-24 20:13N 34°26' E 134°02'6 8.7
2018-Mar-24 19:30N 34°26' E 134°09'5 9.4
2018-Mar-24 18:57N 34°24' E 134°15'510.0
2018-Mar-24 18:29N 34°24' E 134°21'5 9.9
2018-Mar-24 18:00N 34°26' E 134°26'5 9.7
2018-Mar-24 17:30N 34°28' E 134°32'510.0
2018-Mar-24 17:00N 34°30' E 134°37'510.2
2018-Mar-24 16:30N 34°32' E 134°43'510.8
2018-Mar-24 16:00N 34°34' E 134°49'612.2
2018-Mar-24 15:30N 34°37' E 134°56'611.3
2018-Mar-24 15:00N 34°37' E 135°03'4 8.6
2018-Mar-24 14:30N 34°33' E 135°05'510.2
2018-Mar-24 14:00N 34°28' E 135°04'510.2
2018-Mar-24 13:30N 34°23' E 135°02'510.0
2018-Mar-24 13:00N 34°18' E 134°60'4 8.8
2018-Mar-24 12:30N 34°14' E 134°59'4 7.9
2018-Mar-24 12:00N 34°10' E 134°59'5 9.2
2018-Mar-24 11:30N 34°06' E 134°59'5 9.3
2018-Mar-24 11:00N 34°01' E 134°59'5 9.6
2018-Mar-24 10:30N 33°56' E 134°60'5 9.2
2018-Mar-24 10:00N 33°52' E 135°00'5 9.3
2018-Mar-24 09:30N 33°48' E 135°03'183 8.4
2018-Mar-23 11:49N 34°32' E 138°38'5 8.2
2018-Mar-23 11:13N 34°33' E 138°43'4 7.7
2018-Mar-23 10:45N 34°33' E 138°48'2 8.1
2018-Mar-23 10:29N 34°33' E 138°50'4 7.9
2018-Mar-23 09:59N 34°33' E 138°55'4 7.4
2018-Mar-23 09:30N 34°33' E 138°60'5 8.1
2018-Mar-23 08:50N 34°36' E 139°04'3 8.0
2018-Mar-23 08:30N 34°38' E 139°07'6 7.6
2018-Mar-23 07:39N 34°43' E 139°12'1 7.6
2018-Mar-23 07:30N 34°44' E 139°12'4 7.3
2018-Mar-23 06:58N 34°47' E 139°15'4 7.7
2018-Mar-23 06:30N 34°49' E 139°19'5 7.1
2018-Mar-23 05:50N 34°52' E 139°24'3 7.4
2018-Mar-23 05:29N 34°54' E 139°26'5 7.5
2018-Mar-23 04:51N 34°57' E 139°30'3 8.1
2018-Mar-23 04:28N 34°59' E 139°33'4 9.0
2018-Mar-23 04:00N 35°02' E 139°36'7 9.6
2018-Mar-23 03:18N 35°07' E 139°43'3 9.4
2018-Mar-23 03:00N 35°09' E 139°44'510.1
2018-Mar-23 02:30N 35°14' E 139°46'510.3
2018-Mar-23 02:00N 35°18' E 139°43'5 9.7
2018-Mar-23 01:30N 35°23' E 139°42'510.2
2018-Mar-23 01:00N 35°27' E 139°47'510.4
2018-Mar-23 00:30N 35°30' E 139°51'510.0
2018-Mar-22 23:59N 35°34' E 139°56'4 8.9
2018-Mar-22 23:30N 35°37' E 139°59'4 0.2
2018-Mar-22 02:24N 35°41' E 139°59'2 4.6
2018-Mar-22 01:59N 35°39' E 139°59'1 1.1
2018-Mar-22 01:30N 35°38' E 139°59'2 0.1
2018-Mar-20 05:36N 35°41' E 139°59'1 3.8
2018-Mar-20 05:26N 35°40' E 139°59'4 9.3
2018-Mar-20 05:00N 35°36' E 140°00'4 8.1
2018-Mar-20 04:31N 35°36' E 140°05'0 0.1
2018-Mar-20 04:00N 35°36' E 140°05'0 0.1
2018-Mar-20 03:30N 35°36' E 140°05'0 0.0
2018-Mar-20 03:00N 35°36' E 140°05'0 0.1
2018-Mar-20 02:30N 35°36' E 140°05'0 0.0
2018-Mar-20 02:00N 35°36' E 140°05'0 0.1
2018-Mar-20 01:30N 35°36' E 140°05'0 0.1
2018-Mar-20 01:00N 35°36' E 140°05'0 0.0
2018-Mar-20 00:30N 35°36' E 140°05'0 0.0
2018-Mar-20 00:00N 35°36' E 140°05'0 0.0
2018-Mar-19 23:30N 35°36' E 140°05'0 0.0
2018-Mar-19 23:00N 35°36' E 140°05'0 0.1
2018-Mar-19 22:30N 35°36' E 140°05'2 3.7
2018-Mar-19 22:00N 35°35' E 140°04'1 1.8
2018-Mar-19 21:30N 35°34' E 140°03'0 0.0
2018-Mar-19 21:00N 35°34' E 140°03'0 0.0
2018-Mar-19 20:30N 35°34' E 140°03'0 0.0
2018-Mar-19 19:57N 35°34' E 140°03'0 0.0
2018-Mar-19 19:30N 35°34' E 140°03'0 0.0
2018-Mar-19 18:57N 35°34' E 140°03'0 0.0
2018-Mar-19 18:24N 35°34' E 140°03'0 0.0
2018-Mar-19 18:00N 35°34' E 140°03'0 0.0
2018-Mar-19 17:30N 35°34' E 140°03'0 0.0
2018-Mar-19 17:00N 35°34' E 140°03'0 0.0
2018-Mar-19 16:30N 35°34' E 140°03'0 0.1
2018-Mar-19 16:00N 35°34' E 140°03'2 4.3
2018-Mar-19 15:30N 35°33' E 140°01'4 8.3
2018-Mar-19 14:59N 35°30' E 139°57'4 8.6
2018-Mar-19 14:30N 35°29' E 139°52'4 8.4
2018-Mar-19 14:00N 35°26' E 139°48'4 8.5
2018-Mar-19 13:30N 35°25' E 139°43'3 5.7
2018-Mar-19 13:01N 35°24' E 139°39'0 0.2
2018-Mar-19 12:30N 35°25' E 139°39'0 0.1
2018-Mar-19 12:00N 35°25' E 139°39'0 0.1
2018-Mar-19 11:30N 35°25' E 139°39'0 0.0
2018-Mar-19 11:00N 35°25' E 139°39'0 0.0
2018-Mar-19 10:30N 35°25' E 139°39'0 0.0
2018-Mar-19 10:00N 35°25' E 139°39'0 0.1
2018-Mar-19 09:30N 35°25' E 139°39'0 0.0
2018-Mar-19 09:00N 35°25' E 139°39'0 0.0
2018-Mar-19 08:30N 35°25' E 139°39'0 0.1
2018-Mar-19 07:57N 35°25' E 139°39'0 0.1
2018-Mar-19 07:30N 35°25' E 139°39'0 0.0
2018-Mar-19 06:54N 35°25' E 139°39'0 0.0
2018-Mar-19 06:30N 35°25' E 139°39'0 0.1
2018-Mar-19 06:00N 35°25' E 139°39'2 4.2
2018-Mar-19 05:30N 35°24' E 139°42'5 9.5
2018-Mar-19 05:00N 35°27' E 139°47'5 9.4
2018-Mar-19 04:31N 35°29' E 139°51'5 9.4
2018-Mar-19 04:00N 35°32' E 139°56'5 9.8
2018-Mar-19 03:30N 35°34' E 140°02'4 6.8
2018-Mar-19 02:59N 35°36' E 140°05'0 0.1
2018-Mar-19 02:29N 35°36' E 140°05'0 0.0
2018-Mar-19 01:59N 35°36' E 140°05'0 0.0
2018-Mar-19 01:29N 35°36' E 140°05'0 0.0
2018-Mar-19 00:59N 35°36' E 140°05'0 0.0
2018-Mar-19 00:29N 35°36' E 140°05'0 0.0
2018-Mar-18 23:59N 35°36' E 140°05'0 0.1
2018-Mar-18 23:29N 35°36' E 140°05'0 0.1
2018-Mar-18 22:59N 35°36' E 140°05'0 0.0
2018-Mar-18 22:30N 35°36' E 140°05'1 2.9
2018-Mar-18 22:00N 35°35' E 140°04'1 2.7
2018-Mar-18 21:29N 35°34' E 140°03'0 0.0
2018-Mar-18 20:59N 35°34' E 140°03'0 0.0
2018-Mar-18 20:27N 35°34' E 140°03'0 0.0
2018-Mar-18 19:56N 35°34' E 140°03'0 0.0
2018-Mar-18 19:29N 35°34' E 140°03'0 0.1
2018-Mar-18 18:59N 35°34' E 140°03'0 0.0
2018-Mar-18 18:29N 35°34' E 140°03'0 0.0
2018-Mar-18 17:56N 35°34' E 140°03'0 0.1
2018-Mar-18 17:29N 35°34' E 140°03'0 0.0
2018-Mar-18 16:59N 35°34' E 140°03'0 0.0
2018-Mar-18 16:29N 35°34' E 140°03'0 0.0
2018-Mar-18 15:56N 35°34' E 140°03'0 0.0
2018-Mar-18 15:29N 35°34' E 140°03'1 2.9
2018-Mar-18 15:01N 35°33' E 140°02'4 8.8
2018-Mar-18 14:30N 35°30' E 139°58'4 8.9
2018-Mar-18 14:00N 35°29' E 139°53'4 9.0
2018-Mar-18 13:30N 35°26' E 139°48'4 8.9
2018-Mar-18 13:00N 35°24' E 139°43'3 6.5
2018-Mar-18 12:31N 35°24' E 139°39'0 0.3
2018-Mar-18 11:59N 35°25' E 139°39'0 0.0
2018-Mar-18 11:29N 35°25' E 139°39'0 0.0
2018-Mar-18 10:59N 35°25' E 139°39'0 0.0
2018-Mar-18 10:29N 35°25' E 139°39'0 0.1
2018-Mar-18 09:59N 35°25' E 139°39'0 0.1
2018-Mar-18 09:29N 35°25' E 139°39'0 0.0
2018-Mar-18 08:56N 35°25' E 139°39'0 0.1
2018-Mar-18 08:29N 35°25' E 139°39'0 0.0
2018-Mar-18 07:59N 35°25' E 139°39'0 0.0
2018-Mar-18 07:29N 35°25' E 139°39'0 0.1
2018-Mar-18 06:59N 35°25' E 139°39'0 0.0
2018-Mar-18 06:26N 35°25' E 139°39'0 0.1
2018-Mar-18 05:59N 35°25' E 139°39'1 2.4
2018-Mar-18 05:30N 35°24' E 139°40'4 8.7
2018-Mar-18 05:00N 35°26' E 139°45'5 9.8
2018-Mar-18 04:31N 35°29' E 139°50'510.2
2018-Mar-18 04:00N 35°32' E 139°55'510.7
2018-Mar-18 03:30N 35°34' E 140°01'4 8.4
2018-Mar-18 03:00N 35°36' E 140°05'0 0.0
2018-Mar-18 02:29N 35°36' E 140°05'0 0.0
2018-Mar-18 01:59N 35°36' E 140°05'0 0.0
2018-Mar-18 01:29N 35°36' E 140°05'0 0.0
2018-Mar-18 00:59N 35°36' E 140°05'0 0.0
2018-Mar-18 00:29N 35°36' E 140°05'0 0.0
2018-Mar-17 23:59N 35°36' E 140°05'0 0.0
2018-Mar-17 23:29N 35°36' E 140°05'0 0.0
2018-Mar-17 22:59N 35°36' E 140°05'0 0.0
2018-Mar-17 22:30N 35°36' E 140°05'1 2.7
2018-Mar-17 22:00N 35°35' E 140°04'1 2.9
2018-Mar-17 21:29N 35°34' E 140°03'0 0.1
2018-Mar-17 21:00N 35°34' E 140°03'0 0.0
2018-Mar-17 20:27N 35°34' E 140°03'0 0.0
2018-Mar-17 20:00N 35°34' E 140°03'0 0.0
2018-Mar-17 19:29N 35°34' E 140°03'0 0.0
2018-Mar-17 18:56N 35°34' E 140°03'0 0.0
2018-Mar-17 18:30N 35°34' E 140°03'0 0.0
2018-Mar-17 18:00N 35°34' E 140°03'0 0.0
2018-Mar-17 17:27N 35°34' E 140°03'0 0.0
2018-Mar-17 17:00N 35°34' E 140°03'0 0.0
2018-Mar-17 16:27N 35°34' E 140°03'0 0.0
2018-Mar-17 15:59N 35°34' E 140°03'0 0.0
2018-Mar-17 15:30N 35°34' E 140°03'0 0.0
2018-Mar-17 15:00N 35°34' E 140°03'0 0.0
2018-Mar-17 14:29N 35°34' E 140°03'0 0.0
2018-Mar-17 13:59N 35°34' E 140°03'0 0.0
2018-Mar-17 13:27N 35°34' E 140°03'0 0.0
2018-Mar-17 13:00N 35°34' E 140°03'0 0.1
2018-Mar-17 12:30N 35°34' E 140°03'4 7.8
2018-Mar-17 12:00N 35°32' E 139°59'4 8.6
2018-Mar-17 11:30N 35°30' E 139°55'4 8.2
2018-Mar-17 11:00N 35°28' E 139°50'4 8.5
2018-Mar-17 10:31N 35°26' E 139°45'4 8.1
2018-Mar-17 10:01N 35°24' E 139°41'2 3.7
2018-Mar-17 09:31N 35°25' E 139°39'0 0.1
2018-Mar-17 09:00N 35°25' E 139°39'0 0.1
2018-Mar-17 08:30N 35°25' E 139°39'0 0.0
2018-Mar-17 08:00N 35°25' E 139°39'0 0.0
2018-Mar-17 07:30N 35°25' E 139°39'0 0.0
2018-Mar-17 07:00N 35°25' E 139°39'0 0.1
2018-Mar-17 06:30N 35°25' E 139°39'0 0.0
2018-Mar-17 05:57N 35°25' E 139°39'0 0.1
2018-Mar-17 05:30N 35°25' E 139°39'0 0.0
2018-Mar-17 05:00N 35°25' E 139°39'0 0.1
2018-Mar-17 04:30N 35°25' E 139°39'0 0.0
2018-Mar-17 04:00N 35°25' E 139°39'0 0.0
2018-Mar-17 03:27N 35°25' E 139°39'0 0.0
2018-Mar-17 03:00N 35°25' E 139°39'1 1.1
2018-Mar-17 02:30N 35°24' E 139°39'3 5.8
2018-Mar-17 02:01N 35°24' E 139°43'510.5
2018-Mar-17 01:31N 35°28' E 139°48'510.7
2018-Mar-17 01:00N 35°32' E 139°52'510.4
2018-Mar-17 00:30N 35°36' E 139°56'5 0.3
2018-Mar-16 04:14N 35°41' E 139°59'2 7.1
2018-Mar-16 04:00N 35°39' E 139°59'5 9.8
2018-Mar-16 03:30N 35°34' E 139°57'510.4
2018-Mar-16 03:00N 35°30' E 139°55'1 2.2
2018-Mar-16 02:29N 35°29' E 139°55'0 0.0
2018-Mar-16 01:56N 35°29' E 139°55'0 0.0
2018-Mar-16 01:23N 35°29' E 139°55'0 0.0
2018-Mar-16 00:59N 35°29' E 139°55'0 0.0
2018-Mar-16 00:29N 35°29' E 139°55'0 0.0
2018-Mar-15 23:59N 35°28' E 139°55'0 0.0
2018-Mar-15 23:29N 35°29' E 139°55'0 0.0
2018-Mar-15 22:56N 35°28' E 139°55'0 0.1
2018-Mar-15 22:20N 35°28' E 139°55'0 0.1
2018-Mar-15 21:59N 35°29' E 139°55'0 0.0
2018-Mar-15 21:26N 35°29' E 139°55'0 0.0
2018-Mar-15 20:59N 35°29' E 139°55'0 0.0
2018-Mar-15 20:29N 35°29' E 139°55'0 0.0
2018-Mar-15 19:59N 35°29' E 139°55'0 0.0
2018-Mar-15 19:29N 35°29' E 139°55'0 0.0
2018-Mar-15 18:59N 35°29' E 139°55'0 0.0
2018-Mar-15 18:29N 35°29' E 139°55'0 0.0
2018-Mar-15 17:59N 35°29' E 139°55'0 0.0
2018-Mar-15 17:26N 35°29' E 139°55'0 0.0
2018-Mar-15 16:59N 35°29' E 139°55'0 0.0
2018-Mar-15 16:26N 35°29' E 139°55'0 0.0
2018-Mar-15 15:59N 35°29' E 139°55'0 0.0
2018-Mar-15 15:29N 35°29' E 139°55'0 0.0
2018-Mar-15 14:59N 35°29' E 139°55'0 0.0
2018-Mar-15 14:29N 35°29' E 139°55'0 0.0
2018-Mar-15 13:56N 35°29' E 139°55'0 0.0
2018-Mar-15 13:29N 35°29' E 139°55'0 0.0
2018-Mar-15 12:59N 35°29' E 139°55'0 0.0
2018-Mar-15 12:26N 35°29' E 139°55'0 0.0
2018-Mar-15 11:59N 35°29' E 139°55'0 0.0
2018-Mar-15 11:20N 35°29' E 139°55'0 0.0
2018-Mar-15 10:56N 35°29' E 139°55'0 0.0
2018-Mar-15 10:29N 35°29' E 139°55'0 0.0
2018-Mar-15 09:59N 35°29' E 139°55'0 0.0
2018-Mar-15 09:29N 35°29' E 139°55'0 0.0
2018-Mar-15 08:59N 35°29' E 139°55'0 0.0
2018-Mar-15 08:29N 35°29' E 139°55'0 0.0
2018-Mar-15 07:59N 35°29' E 139°55'1 1.9
2018-Mar-15 07:31N 35°29' E 139°54'5 9.3
2018-Mar-15 07:00N 35°27' E 139°48'5 9.7
2018-Mar-15 06:30N 35°25' E 139°43'2 3.4
2018-Mar-15 06:00N 35°24' E 139°41'4 8.6
2018-Mar-15 05:30N 35°27' E 139°45'4 8.8
2018-Mar-15 05:00N 35°29' E 139°49'4 8.6
2018-Mar-15 04:30N 35°32' E 139°54'4 8.6
2018-Mar-15 04:00N 35°33' E 139°59'4 9.0
2018-Mar-15 03:30N 35°35' E 140°04'1 1.9
2018-Mar-15 02:58N 35°36' E 140°05'0 0.0
2018-Mar-15 02:25N 35°36' E 140°05'0 0.0
2018-Mar-15 01:58N 35°36' E 140°05'0 0.0
2018-Mar-15 01:28N 35°36' E 140°05'0 0.0
2018-Mar-15 00:58N 35°36' E 140°05'0 0.0
2018-Mar-15 00:28N 35°36' E 140°05'0 0.0
2018-Mar-14 23:58N 35°36' E 140°05'0 0.0
2018-Mar-14 23:28N 35°36' E 140°05'0 0.0
2018-Mar-14 22:58N 35°36' E 140°05'0 0.0
2018-Mar-14 22:30N 35°36' E 140°05'2 3.6
2018-Mar-14 22:00N 35°35' E 140°03'1 1.9
2018-Mar-14 21:28N 35°34' E 140°03'0 0.0
2018-Mar-14 20:58N 35°34' E 140°03'0 0.0
2018-Mar-14 20:28N 35°34' E 140°03'  

Dump ship's entire track history